Poe, West Virginia
Current Conditions -  °F | °C
As of 6:51 AM on Sunday 23 Nov 2014 (Local Time) from KBKW Reporting Station
Clear Clear  
Wind Chill: 38°   Ceiling: Unl
Heat Index: 42°   Visibility: 10mi
Dew Point: 23°   Wind: 6mph
Humidity: 47%   Direction: 130°SE
Pressure: 30.14"   Gusts: NA
Location:  38.2212°N, 80.9257°W
Report Text: KBKW 231151Z AUTO 13005KT 10SM CLR 06/M05 A3014 RMK AO2 SLP215 60000 T00561050 10067 20028 58008
Loading
Personal Weather Stations






























Interactive Weather Map New forecast layout! Learn more

10-Day Weather Forecast

Advertisements
Track Severe Weather on mobile